Skip Navigation Links Skip Navigation Links

Current Weather

Henderson, Las Vegas, Nev.

For information only: do not use for flight planning or navigation.
Latest weather
Observation time Wednesday, August 12, 2020 9:56 AM PDT
Local time Wednesday, August 12, 2020 10:17 AM PDT
Flight conditions Visual Meteorological Conditions
Winds
Wind direction South-Southwest (200°)
Wind speed 18 mph
Visibility 10 mi.
Sky condition
Ceiling unlimited
Sky clear
Temperature 95°F
Dewpoint 30°F
Altimeter 29.99 in.Hg
Derived measurements
Relative humidity 10%
Heat index 95°F
Density altitude 4743 ft.
Sea-level pressure 29.93 in.Hg
Remarks
Automated weather observing station with precipitation discriminator.
METAR KHND 121656Z 20016KT 10SM CLR 35/M01 A2999 RMK AO2 SLP135 T03501011

Settings

Location code

InnerDrive.Weather 4.0.6770.0 Release CLR 4.0.30319.42000
Copyright ©2018 Inner Drive Technology. All rights reserved. Portions Copyright ©1986-2018 David Braverman.

Find weather

Site navigation


Skip Navigation Links

Place info

Page info

PayPal - The safer, easier way to pay online!

Return home.

Copyright ©2020 Inner Drive Technology. Purveyors of fine, hand-crafted computer software. Page printed 2020-08-12T17:17:33 UTC.